Terminal Aerodrome Forecast
Issued by NWS

Home | Current Version | Previous Version | Graphics & Text | Print | Product List | Glossary On
Versions: 1 2 3 4 5 6 7 8 9 10 11 12 13 14 15 16 17
000
FTUS43 KMPX 201120
TAFAXN
TAF
KAXN 201120Z 2012/2112 08010KT P6SM OVC050
     FM201500 07012G20KT 6SM -RA BR SCT020 OVC040
     FM201700 07013G23KT 4SM RA BR SCT008 OVC015
     FM202100 06010G19KT 2SM -RA BR OVC007
     FM210700 01009KT 3SM -RA BR OVC005=

USA.gov is the U.S. government's official web portal to all federal, state and local government web resources and services.